Time;durP1;ratioP1;P1;durP2;ratioP2;P2;SDS_P1;SDS_P2;PMS_P1;PMS_P2;Temp;Humidity;BMP_temperature;BMP_pressure;BME280_temperature;BME280_humidity;BME280_pressure;Samples;Min_cycle;Max_cycle;Signal;HPM_P1;HPM_P2
2021/07/15 00:00:47;;;;;;;45.75;33.58;;;19.70;99.90;;;;;;4975870;28;20155;-65
2021/07/15 00:03:17;;;;;;;37.58;30.88;;;19.70;99.90;;;;;;4988033;28;20137;-65
2021/07/15 00:05:43;;;;;;;42.38;33.05;;;19.70;99.90;;;;;;4988600;28;20074;-65
2021/07/15 00:08:11;;;;;;;45.83;33.28;;;19.70;99.90;;;;;;4988461;28;20131;-65
2021/07/15 00:10:47;;;;;;;43.38;33.72;;;19.70;99.90;;;;;;4988990;28;20035;-65
2021/07/15 00:13:14;;;;;;;42.47;31.77;;;19.60;99.90;;;;;;4988759;28;20532;-65
2021/07/15 00:15:46;;;;;;;39.03;32.05;;;19.70;99.90;;;;;;4988915;28;20047;-64
2021/07/15 00:18:13;;;;;;;39.83;29.65;;;19.60;99.90;;;;;;4988617;28;20442;-65
2021/07/15 00:20:42;;;;;;;44.88;33.63;;;19.60;99.90;;;;;;4987518;28;20054;-65
2021/07/15 00:23:08;;;;;;;42.45;31.40;;;19.60;99.90;;;;;;4976260;28;20046;-64
2021/07/15 00:25:35;;;;;;;44.38;30.70;;;19.60;99.90;;;;;;4970517;28;20053;-65
2021/07/15 00:28:01;;;;;;;43.00;30.63;;;19.60;99.90;;;;;;4988034;28;20042;-65
2021/07/15 00:30:27;;;;;;;38.47;30.13;;;19.60;99.90;;;;;;4987971;28;20170;-65
2021/07/15 00:32:52;;;;;;;37.67;30.33;;;19.60;99.90;;;;;;4981225;28;20050;-65
2021/07/15 00:35:18;;;;;;;34.72;27.83;;;19.50;99.90;;;;;;4987216;28;20043;-65
2021/07/15 00:37:45;;;;;;;40.00;29.67;;;19.50;99.90;;;;;;4980629;28;20050;-65
2021/07/15 00:40:14;;;;;;;37.08;28.15;;;19.50;99.90;;;;;;4987509;28;20105;-65
2021/07/15 00:42:40;;;;;;;45.03;30.47;;;19.50;99.90;;;;;;4988098;28;20062;-65
2021/07/15 00:45:07;;;;;;;47.63;31.75;;;19.50;99.90;;;;;;4987368;28;20317;-64
2021/07/15 00:47:33;;;;;;;40.65;30.33;;;19.50;99.90;;;;;;4976477;28;20051;-65
2021/07/15 00:50:00;;;;;;;45.85;32.78;;;19.50;99.90;;;;;;4973308;28;20174;-65
2021/07/15 00:52:26;;;;;;;49.33;34.63;;;19.50;99.90;;;;;;4974762;28;20070;-65
2021/07/15 00:54:52;;;;;;;39.08;30.13;;;19.50;99.90;;;;;;4985350;28;20106;-65
2021/07/15 00:57:19;;;;;;;41.03;30.95;;;19.60;99.90;;;;;;4977164;28;20073;-65
2021/07/15 00:59:46;;;;;;;40.88;31.00;;;19.60;99.90;;;;;;4985746;28;20050;-65
2021/07/15 01:02:12;;;;;;;40.17;29.70;;;19.60;99.90;;;;;;4983474;28;20065;-65
2021/07/15 01:04:38;;;;;;;41.35;29.90;;;19.60;99.90;;;;;;4983060;28;20507;-65
2021/07/15 01:07:04;;;;;;;39.13;28.30;;;19.60;99.90;;;;;;4978204;28;20047;-65
2021/07/15 01:09:32;;;;;;;34.88;26.70;;;19.60;99.90;;;;;;4987185;28;20070;-65
2021/07/15 01:12:17;;;;;;;35.92;27.33;;;19.60;99.90;;;;;;4977924;28;20051;-65
2021/07/15 01:15:09;;;;;;;38.58;27.55;;;19.60;99.90;;;;;;4986124;28;20053;-65
2021/07/15 01:17:55;;;;;;;34.22;24.08;;;19.60;99.90;;;;;;4987055;28;20050;-65
2021/07/15 01:20:59;;;;;;;41.85;27.15;;;19.60;99.90;;;;;;4975183;28;20074;-64
2021/07/15 01:23:42;;;;;;;30.13;24.27;;;19.50;99.90;;;;;;4967621;28;20071;-65
2021/07/15 01:26:38;;;;;;;31.35;23.75;;;19.50;99.90;;;;;;4986497;28;20578;-65
2021/07/15 01:29:36;;;;;;;36.47;25.30;;;19.50;99.90;;;;;;4986671;28;20094;-64
2021/07/15 01:32:05;;;;;;;32.58;23.88;;;19.60;99.90;;;;;;4975697;28;20062;-65
2021/07/15 01:34:34;;;;;;;34.22;25.27;;;19.50;99.90;;;;;;4987125;28;20042;-65
2021/07/15 01:37:00;;;;;;;41.20;27.02;;;19.50;99.90;;;;;;4961689;28;20048;-65
2021/07/15 01:39:33;;;;;;;34.60;25.83;;;19.50;99.90;;;;;;4986870;28;20042;-65
2021/07/15 01:42:08;;;;;;;34.88;24.77;;;19.50;99.90;;;;;;4987208;28;20074;-65
2021/07/15 01:44:34;;;;;;;39.13;25.98;;;19.50;99.90;;;;;;4969340;28;20491;-64
2021/07/15 01:47:00;;;;;;;34.35;26.40;;;19.50;99.90;;;;;;4984095;28;20106;-65
2021/07/15 01:49:27;;;;;;;35.67;26.08;;;19.50;99.90;;;;;;4976610;28;20043;-64
2021/07/15 01:51:56;;;;;;;36.50;26.00;;;19.50;99.90;;;;;;4979992;28;20059;-65
2021/07/15 01:54:23;;;;;;;39.65;26.75;;;19.60;99.90;;;;;;4972536;28;20070;-65
2021/07/15 01:56:49;;;;;;;38.13;24.65;;;19.60;99.90;;;;;;4984775;28;20043;-65
2021/07/15 01:59:19;;;;;;;33.60;25.67;;;19.60;99.90;;;;;;4958459;28;20051;-64
2021/07/15 02:01:49;;;;;;;36.33;26.17;;;19.50;99.90;;;;;;4982131;28;20097;-65
2021/07/15 02:04:15;;;;;;;44.15;28.38;;;19.60;99.90;;;;;;4986053;28;20042;-64
2021/07/15 02:06:43;;;;;;;39.83;26.67;;;19.60;99.90;;;;;;4973907;28;20051;-65
2021/07/15 02:09:11;;;;;;;34.17;26.05;;;19.60;99.90;;;;;;4961644;28;20086;-65
2021/07/15 02:11:39;;;;;;;36.97;26.48;;;19.60;99.90;;;;;;4940234;28;20149;-64
2021/07/15 02:14:09;;;;;;;34.20;26.27;;;19.60;99.90;;;;;;4979226;28;20054;-65
2021/07/15 02:16:36;;;;;;;;;;;19.60;99.90;;;;;;4980716;28;20102;-65
2021/07/15 02:19:04;;;;;;;38.78;25.63;;;19.50;99.90;;;;;;4986821;28;19948;-65
2021/07/15 02:21:31;;;;;;;37.10;27.65;;;19.50;99.90;;;;;;4986351;28;20105;-65
2021/07/15 02:23:58;;;;;;;39.65;27.67;;;19.50;99.90;;;;;;4985782;28;20106;-65
2021/07/15 02:26:29;;;;;;;38.55;25.38;;;19.60;99.90;;;;;;4985800;28;20503;-65
2021/07/15 02:28:55;;;;;;;40.95;27.67;;;19.50;99.90;;;;;;4957087;28;20042;-65
2021/07/15 02:31:34;;;;;;;39.67;26.80;;;19.50;99.90;;;;;;4973270;28;20051;-65
2021/07/15 02:34:08;;;;;;;36.65;27.50;;;19.50;99.90;;;;;;4985684;28;20047;-65
2021/07/15 02:36:35;;;;;;;51.33;29.52;;;19.60;99.90;;;;;;4971980;28;20047;-65
2021/07/15 02:39:03;;;;;;;35.53;27.70;;;19.60;99.90;;;;;;4986203;28;20046;-65
2021/07/15 02:41:29;;;;;;;39.60;26.77;;;19.60;99.90;;;;;;4985911;28;20050;-65
2021/07/15 02:43:55;;;;;;;38.78;27.85;;;19.60;99.90;;;;;;4976835;28;20047;-65
2021/07/15 02:46:21;;;;;;;37.95;27.67;;;19.60;99.90;;;;;;4980295;28;20119;-64
2021/07/15 02:48:46;;;;;;;41.60;29.02;;;19.60;99.90;;;;;;4975586;28;20050;-65
2021/07/15 02:51:12;;;;;;;40.47;27.95;;;19.60;99.90;;;;;;4973242;28;20051;-65
2021/07/15 02:53:39;;;;;;;49.13;29.83;;;19.60;99.90;;;;;;4974286;28;20046;-65
2021/07/15 02:56:11;;;;;;;38.97;27.55;;;19.60;99.90;;;;;;4972742;28;20055;-65
2021/07/15 02:58:44;;;;;;;49.92;31.27;;;19.60;99.90;;;;;;4985744;28;20057;-64
2021/07/15 03:01:16;;;;;;;38.40;28.25;;;19.60;99.90;;;;;;4985454;28;20050;-65
2021/07/15 03:04:02;;;;;;;40.97;28.85;;;19.60;99.90;;;;;;4985830;28;20414;-65
2021/07/15 03:06:40;;;;;;;37.60;28.42;;;19.60;99.90;;;;;;4985656;28;20042;-65
2021/07/15 03:09:32;;;;;;;37.65;26.88;;;19.60;99.90;;;;;;4971306;28;20061;-65
2021/07/15 03:12:20;;;;;;;41.17;28.98;;;19.60;99.90;;;;;;4979231;28;20047;-65
2021/07/15 03:14:48;;;;;;;42.58;29.58;;;19.60;99.90;;;;;;4985673;28;20050;-65
2021/07/15 03:17:17;;;;;;;45.05;30.83;;;19.60;99.90;;;;;;4985486;28;20042;-65
2021/07/15 03:19:48;;;;;;;44.63;28.80;;;19.60;99.90;;;;;;4985570;28;20038;-65
2021/07/15 03:22:16;;;;;;;41.50;29.60;;;19.60;99.90;;;;;;4985436;28;20039;-65
2021/07/15 03:24:58;;;;;;;45.65;30.42;;;19.60;99.90;;;;;;4985267;28;20054;-65
2021/07/15 03:27:27;;;;;;;42.08;28.00;;;19.60;99.90;;;;;;4960438;28;20074;-64
2021/07/15 03:29:56;;;;;;;43.67;28.70;;;19.60;99.90;;;;;;4985599;28;20107;-65
2021/07/15 03:32:24;;;;;;;44.30;28.90;;;19.60;99.90;;;;;;4985574;28;20288;-65
2021/07/15 03:34:50;;;;;;;43.03;27.33;;;19.50;99.90;;;;;;4985201;28;20042;-65
2021/07/15 03:37:17;;;;;;;44.25;28.10;;;19.50;99.90;;;;;;4985176;28;20047;-64
2021/07/15 03:39:47;;;;;;;41.58;28.00;;;19.50;99.90;;;;;;4988682;28;20051;-64
2021/07/15 03:42:14;;;;;;;43.92;28.73;;;19.50;99.90;;;;;;4988599;28;20035;-65
2021/07/15 03:44:41;;;;;;;38.75;26.75;;;19.50;99.90;;;;;;4978914;28;20126;-65
2021/07/15 03:47:07;;;;;;;38.22;26.42;;;19.50;99.90;;;;;;4973447;28;20522;-64
2021/07/15 03:49:34;;;;;;;37.33;26.40;;;19.50;99.90;;;;;;4989468;28;20130;-64
2021/07/15 03:52:00;;;;;;;36.13;26.45;;;19.60;99.90;;;;;;4988621;28;20035;-65
2021/07/15 03:54:26;;;;;;;38.15;26.50;;;19.50;99.90;;;;;;4980639;28;20043;-65
2021/07/15 03:56:53;;;;;;;39.92;26.45;;;19.60;99.90;;;;;;4988310;28;20074;-65
2021/07/15 03:59:20;;;;;;;35.47;26.20;;;19.60;99.90;;;;;;4988512;28;20066;-65
2021/07/15 04:02:09;;;;;;;38.08;25.90;;;19.60;99.90;;;;;;4988421;28;20110;-64
2021/07/15 04:04:38;;;;;;;40.58;27.40;;;19.60;99.90;;;;;;4988740;28;20142;-65
2021/07/15 04:07:06;;;;;;;37.35;26.35;;;19.50;99.90;;;;;;4988790;28;20058;-64
2021/07/15 04:09:35;;;;;;;37.03;25.23;;;19.60;99.90;;;;;;4975905;28;20049;-65
2021/07/15 04:12:02;;;;;;;31.77;24.33;;;19.50;99.90;;;;;;4969323;29;20047;-65
2021/07/15 04:14:52;;;;;;;33.88;24.77;;;19.50;99.90;;;;;;4981990;28;20049;-64
2021/07/15 04:17:19;;;;;;;36.97;23.70;;;19.50;99.90;;;;;;4988364;28;20053;-64
2021/07/15 04:19:47;;;;;;;30.73;22.00;;;19.50;99.90;;;;;;4987992;28;20106;-65
2021/07/15 04:22:13;;;;;;;34.13;22.30;;;19.50;99.90;;;;;;4988031;28;20046;-65
2021/07/15 04:24:42;;;;;;;32.45;22.45;;;19.40;99.90;;;;;;4987784;28;20047;-65
2021/07/15 04:27:09;;;;;;;33.00;21.13;;;19.50;99.90;;;;;;4978604;28;20054;-65
2021/07/15 04:29:37;;;;;;;32.25;21.45;;;19.50;99.90;;;;;;4984018;28;20046;-65
2021/07/15 04:32:13;;;;;;;31.70;19.83;;;19.50;99.90;;;;;;4988116;28;20078;-64
2021/07/15 04:34:40;;;;;;;32.70;21.02;;;19.50;99.90;;;;;;4987590;28;20102;-65
2021/07/15 04:37:06;;;;;;;27.73;18.95;;;19.50;99.90;;;;;;4987836;28;20125;-64
2021/07/15 04:39:34;;;;;;;27.92;18.70;;;19.50;99.90;;;;;;4975252;28;20043;-64
2021/07/15 04:42:02;;;;;;;30.25;18.50;;;19.50;99.90;;;;;;4978045;28;20054;-64
2021/07/15 04:44:35;;;;;;;25.67;17.63;;;19.50;99.90;;;;;;4981930;28;20043;-65
2021/07/15 04:47:03;;;;;;;30.92;18.13;;;19.50;99.90;;;;;;4978791;28;20049;-65
2021/07/15 04:49:32;;;;;;;26.92;17.88;;;19.40;99.90;;;;;;4987557;28;20070;-65
2021/07/15 04:52:01;;;;;;;26.67;17.70;;;19.40;99.90;;;;;;4987568;28;20050;-65
2021/07/15 04:54:28;;;;;;;25.63;16.55;;;19.50;99.90;;;;;;4974659;28;20050;-65
2021/07/15 04:56:55;;;;;;;36.10;18.73;;;19.40;99.90;;;;;;4970707;28;20042;-65
2021/07/15 04:59:21;;;;;;;24.00;17.05;;;19.40;99.90;;;;;;4985038;28;20558;-65
2021/07/15 05:01:48;;;;;;;30.48;16.88;;;19.40;99.90;;;;;;4987205;28;20058;-64
2021/07/15 05:04:14;;;;;;;27.20;16.45;;;19.40;99.90;;;;;;4987244;28;20062;-65
2021/07/15 05:06:40;;;;;;;25.85;16.45;;;19.40;99.90;;;;;;4987117;28;20039;-65
2021/07/15 05:09:06;;;;;;;31.50;17.13;;;19.50;99.90;;;;;;4972944;28;20093;-64
2021/07/15 05:11:33;;;;;;;33.30;18.23;;;19.40;99.90;;;;;;4976175;28;20043;-64
2021/07/15 05:14:01;;;;;;;34.20;18.60;;;19.40;99.90;;;;;;4986800;28;20042;-65
2021/07/15 05:16:27;;;;;;;32.50;17.60;;;19.30;99.90;;;;;;4977523;28;20078;-67
2021/07/15 05:18:53;;;;;;;35.08;18.50;;;19.30;99.90;;;;;;4983116;28;20043;-65
2021/07/15 05:21:19;;;;;;;35.22;19.02;;;19.30;99.90;;;;;;4979409;28;20098;-65
2021/07/15 05:23:45;;;;;;;33.05;17.88;;;19.30;99.90;;;;;;4965584;28;20043;-65
2021/07/15 05:26:11;;;;;;;35.92;19.50;;;19.30;99.90;;;;;;4987507;28;20102;-65
2021/07/15 05:28:37;;;;;;;29.98;17.73;;;19.30;99.90;;;;;;4983411;28;20114;-64
2021/07/15 05:31:03;;;;;;;28.42;16.80;;;19.30;99.90;;;;;;4986780;28;20047;-65
2021/07/15 05:33:29;;;;;;;27.63;18.17;;;19.30;99.90;;;;;;4987218;28;20092;-65
2021/07/15 05:35:54;;;;;;;27.95;17.50;;;19.30;99.90;;;;;;4987372;28;20042;-65
2021/07/15 05:38:20;;;;;;;30.42;19.40;;;19.30;99.90;;;;;;4987181;28;20051;-65
2021/07/15 05:40:46;;;;;;;28.98;17.02;;;19.30;99.90;;;;;;4986444;28;20190;-65
2021/07/15 05:43:12;;;;;;;28.27;17.20;;;19.30;99.90;;;;;;4969851;28;20442;-65
2021/07/15 05:45:38;;;;;;;26.60;17.88;;;19.30;99.90;;;;;;4986418;28;20039;-65
2021/07/15 05:48:04;;;;;;;24.08;16.08;;;19.30;99.90;;;;;;4986408;28;20474;-65
2021/07/15 05:50:30;;;;;;;23.52;15.50;;;19.30;99.90;;;;;;4986352;28;20146;-64
2021/07/15 05:52:56;;;;;;;21.08;16.13;;;19.30;99.90;;;;;;4985894;28;20494;-65
2021/07/15 05:55:22;;;;;;;24.80;16.52;;;19.30;99.90;;;;;;4985570;28;20410;-65
2021/07/15 05:57:48;;;;;;;20.02;15.82;;;19.30;99.90;;;;;;4986309;28;20057;-65
2021/07/15 06:00:14;;;;;;;25.25;16.63;;;19.30;99.90;;;;;;4986075;28;20130;-65
2021/07/15 06:02:40;;;;;;;26.13;16.85;;;19.40;99.90;;;;;;4975571;28;20051;-64
2021/07/15 06:05:06;;;;;;;22.90;15.57;;;19.40;99.90;;;;;;4966593;29;20055;-65
2021/07/15 06:07:32;;;;;;;32.60;16.67;;;19.40;99.90;;;;;;4977793;28;20108;-65
2021/07/15 06:09:58;;;;;;;27.02;17.10;;;19.40;99.90;;;;;;4986094;28;20050;-65
2021/07/15 06:12:24;;;;;;;26.67;17.92;;;19.40;99.90;;;;;;4966888;28;20050;-65
2021/07/15 06:14:50;;;;;;;25.90;18.67;;;19.40;99.90;;;;;;4974810;28;20062;-63
2021/07/15 06:17:16;;;;;;;29.42;18.73;;;19.40;99.90;;;;;;4973338;28;20047;-63
2021/07/15 06:19:42;;;;;;;34.38;19.23;;;19.40;99.90;;;;;;4980639;28;20047;-63
2021/07/15 06:22:08;;;;;;;31.08;19.90;;;19.40;99.90;;;;;;4971358;28;20111;-66
2021/07/15 06:24:34;;;;;;;29.45;19.65;;;19.40;99.90;;;;;;4967870;28;20082;-64
2021/07/15 06:27:00;;;;;;;28.92;18.85;;;19.40;99.90;;;;;;4965124;28;20101;-64
2021/07/15 06:29:26;;;;;;;32.92;19.45;;;19.40;99.90;;;;;;4937457;28;20804;-65
2021/07/15 06:31:52;;;;;;;37.28;20.45;;;19.50;99.90;;;;;;4951059;28;20068;-65
2021/07/15 06:34:18;;;;;;;26.65;19.50;;;19.50;99.90;;;;;;4954581;28;20123;-65
2021/07/15 06:36:45;;;;;;;33.47;18.83;;;19.50;99.90;;;;;;4951437;28;20488;-65
2021/07/15 06:39:12;;;;;;;27.98;18.50;;;19.60;99.90;;;;;;4951008;28;21178;-64
2021/07/15 06:41:37;;;;;;;24.77;16.67;;;19.70;99.90;;;;;;4958742;28;20051;-65
2021/07/15 06:44:03;;;;;;;28.60;16.90;;;19.80;99.90;;;;;;4951727;28;20059;-66
2021/07/15 06:46:30;;;;;;;26.40;16.52;;;19.80;99.90;;;;;;4952730;28;20044;-65
2021/07/15 06:48:56;;;;;;;25.17;15.18;;;19.80;99.90;;;;;;4951763;28;20067;-65
2021/07/15 06:51:22;;;;;;;26.58;15.30;;;19.80;99.90;;;;;;4947541;28;20051;-65
2021/07/15 06:53:51;;;;;;;22.17;14.50;;;19.70;99.90;;;;;;4961682;28;20043;-65
2021/07/15 06:56:17;;;;;;;18.52;13.73;;;19.80;99.90;;;;;;4950495;28;20082;-64
2021/07/15 06:58:43;;;;;;;23.92;14.73;;;19.80;99.90;;;;;;4968394;28;20146;-65
2021/07/15 07:01:09;;;;;;;22.88;14.02;;;19.80;99.90;;;;;;4979536;28;20542;-65
2021/07/15 07:03:37;;;;;;;18.20;12.57;;;19.80;99.90;;;;;;4984571;28;20103;-65
2021/07/15 07:06:03;;;;;;;19.85;13.82;;;19.70;99.90;;;;;;4982426;28;20082;-65
2021/07/15 07:08:30;;;;;;;18.17;13.02;;;19.70;99.90;;;;;;4985087;28;20109;-65
2021/07/15 07:10:55;;;;;;;19.98;12.15;;;19.70;99.90;;;;;;4986461;28;20050;-65
2021/07/15 07:13:21;;;;;;;15.93;11.70;;;19.70;99.90;;;;;;4984787;28;20054;-65
2021/07/15 07:15:47;;;;;;;19.40;12.13;;;19.70;99.90;;;;;;4986716;28;20094;-65
2021/07/15 07:18:13;;;;;;;15.93;11.55;;;19.70;99.90;;;;;;4987977;28;20043;-64
2021/07/15 07:20:40;;;;;;;20.45;11.20;;;19.60;99.90;;;;;;4963717;28;20620;-64
2021/07/15 07:23:13;;;;;;;19.27;11.15;;;19.60;99.90;;;;;;4965307;28;20061;-62
2021/07/15 07:25:40;;;;;;;15.80;11.57;;;19.60;99.90;;;;;;4969759;28;20103;-63
2021/07/15 07:28:06;;;;;;;18.35;11.27;;;19.60;99.90;;;;;;4970512;28;20638;-63
2021/07/15 09:39:57;;;;;;;13.32;9.10;;;19.50;99.90;;;;;;5123651;27;20395;-64
2021/07/15 09:42:25;;;;;;;14.15;8.70;;;20.10;99.90;;;;;;5123281;28;20054;-65
2021/07/15 09:44:52;;;;;;;14.20;8.77;;;20.10;99.90;;;;;;5121691;28;20108;-65
2021/07/15 09:47:42;;;;;;;14.35;9.30;;;20.00;99.90;;;;;;5122833;28;20044;-65
2021/07/15 09:50:26;;;;;;;15.95;10.10;;;20.10;99.90;;;;;;5123202;28;20048;-65
2021/07/15 09:52:59;;;;;;;17.48;10.07;;;20.10;99.90;;;;;;5123122;28;20043;-65
2021/07/15 09:55:26;;;;;;;17.70;10.90;;;20.00;99.90;;;;;;5123013;28;20081;-65
2021/07/15 09:58:04;;;;;;;15.52;10.75;;;20.00;99.90;;;;;;5123022;28;20044;-64
2021/07/15 10:00:36;;;;;;;15.95;9.98;;;20.00;99.90;;;;;;5121760;28;20036;-65
2021/07/15 10:03:05;;;;;;;17.30;10.32;;;20.00;99.90;;;;;;5113384;28;20054;-65
2021/07/15 10:05:32;;;;;;;16.33;10.97;;;20.00;99.90;;;;;;5111797;28;20054;-64
2021/07/15 10:08:08;;;;;;;23.75;11.50;;;20.00;99.90;;;;;;5104623;28;20051;-64
2021/07/15 10:10:35;;;;;;;16.90;10.77;;;20.00;99.90;;;;;;5100578;28;20048;-64
2021/07/15 10:13:19;;;;;;;15.63;10.55;;;20.00;99.90;;;;;;5111210;28;20059;-63
2021/07/15 10:15:47;;;;;;;18.80;10.63;;;20.00;99.90;;;;;;5121216;28;20077;-62
2021/07/15 10:18:14;;;;;;;19.67;11.57;;;19.90;99.90;;;;;;5109776;28;20055;-63
2021/07/15 10:20:56;;;;;;;16.30;10.73;;;19.90;99.90;;;;;;5079521;28;20045;-64
2021/07/15 10:23:34;;;;;;;21.00;11.10;;;19.90;99.90;;;;;;5061812;28;20305;-63
2021/07/15 10:26:01;;;;;;;21.75;11.48;;;20.00;99.90;;;;;;5062389;28;20048;-63
2021/07/15 10:28:28;;;;;;;16.65;10.52;;;20.00;99.90;;;;;;5073750;28;20055;-63
2021/07/15 10:31:00;;;;;;;16.30;10.63;;;20.00;99.90;;;;;;5063240;28;20060;-63
2021/07/15 10:33:27;;;;;;;22.00;11.77;;;20.00;99.90;;;;;;5060224;28;20057;-61
2021/07/15 10:35:54;;;;;;;16.55;11.27;;;20.00;99.90;;;;;;5054677;28;20052;-63
2021/07/15 10:38:20;;;;;;;18.33;10.70;;;20.00;99.90;;;;;;5078297;28;20141;-63
2021/07/15 10:40:49;;;;;;;20.23;11.80;;;19.90;99.90;;;;;;5052609;28;20068;-63
2021/07/15 10:43:15;;;;;;;18.75;10.75;;;19.90;99.90;;;;;;5068009;28;20037;-63
2021/07/15 10:45:41;;;;;;;20.00;10.23;;;19.90;99.90;;;;;;5058137;28;20151;-63
2021/07/15 10:48:09;;;;;;;15.93;10.35;;;19.90;99.90;;;;;;5069008;28;20049;-63
2021/07/15 10:50:35;;;;;;;18.27;11.13;;;19.90;99.90;;;;;;5056243;28;20044;-63
2021/07/15 10:53:02;;;;;;;22.80;10.70;;;19.90;99.90;;;;;;5059222;28;20088;-63
2021/07/15 10:55:28;;;;;;;21.65;11.23;;;19.80;99.90;;;;;;5052169;28;20061;-63
2021/07/15 10:57:54;;;;;;;19.85;11.25;;;19.80;99.90;;;;;;5071353;28;20056;-63
2021/07/15 11:00:27;;;;;;;21.55;10.05;;;19.90;99.90;;;;;;5053983;28;20052;-63
2021/07/15 11:03:22;;;;;;;16.08;9.98;;;19.90;99.90;;;;;;5048547;28;20076;-63
2021/07/15 11:05:54;;;;;;;17.17;10.23;;;20.00;99.90;;;;;;5040177;28;20526;-63
2021/07/15 11:08:48;;;;;;;16.67;8.35;;;20.00;99.90;;;;;;5036848;28;20049;-63
2021/07/15 11:11:15;;;;;;;19.08;10.02;;;20.10;99.90;;;;;;5040460;28;20059;-63
2021/07/15 11:13:44;;;;;;;17.13;9.85;;;20.10;99.90;;;;;;5045503;28;20049;-62
2021/07/15 11:16:10;;;;;;;14.80;9.52;;;20.10;99.90;;;;;;5046452;28;20110;-63
2021/07/15 11:19:00;;;;;;;17.60;10.55;;;20.10;99.90;;;;;;5066381;28;20045;-63
2021/07/15 11:21:26;;;;;;;24.20;11.38;;;20.10;99.90;;;;;;5061487;28;20087;-63
2021/07/15 11:24:04;;;;;;;19.48;10.63;;;20.00;99.90;;;;;;5064654;28;20053;-64
2021/07/15 11:26:32;;;;;;;20.92;10.57;;;20.00;99.90;;;;;;5043600;28;20061;-63
2021/07/15 11:28:59;;;;;;;17.75;9.60;;;19.90;99.90;;;;;;5059725;28;20094;-63
2021/07/15 11:31:46;;;;;;;21.30;9.23;;;19.90;99.90;;;;;;5049179;28;20559;-63
2021/07/15 11:34:41;;;;;;;18.98;10.30;;;19.90;99.90;;;;;;5044758;28;20040;-63
2021/07/15 11:37:25;;;;;;;19.75;10.88;;;19.90;99.90;;;;;;5064420;28;20045;-63
2021/07/15 11:39:52;;;;;;;19.02;10.48;;;20.00;99.90;;;;;;5055319;28;20049;-63
2021/07/15 11:42:23;;;;;;;17.52;10.38;;;20.00;99.90;;;;;;5063215;28;20060;-63
2021/07/15 11:45:09;;;;;;;16.83;10.80;;;20.00;99.90;;;;;;5056602;28;20048;-64
2021/07/15 11:47:51;;;;;;;16.58;9.68;;;20.00;99.90;;;;;;5043770;28;20332;-63
2021/07/15 11:50:39;;;;;;;19.90;9.73;;;20.10;99.90;;;;;;5046787;28;20055;-63
2021/07/15 11:53:16;;;;;;;16.10;9.35;;;20.20;99.90;;;;;;5050109;28;20379;-63
2021/07/15 11:55:46;;;;;;;16.67;9.82;;;20.20;99.90;;;;;;5032673;28;20056;-63
2021/07/15 11:58:46;;;;;;;14.75;9.73;;;20.40;99.90;;;;;;5049413;28;20479;-63
2021/07/15 12:01:22;;;;;;;14.45;8.38;;;20.60;99.90;;;;;;5044411;28;20210;-64
2021/07/15 12:04:02;;;;;;;16.15;8.18;;;20.70;99.90;;;;;;5063870;28;20045;-63
2021/07/15 12:06:30;;;;;;;19.48;8.95;;;20.80;99.90;;;;;;5047129;28;20053;-63
2021/07/15 12:09:08;;;;;;;11.48;7.70;;;20.90;99.90;;;;;;5046867;28;20060;-63
2021/07/15 12:11:35;;;;;;;15.02;8.00;;;21.10;99.90;;;;;;5058816;28;20057;-63
2021/07/15 12:14:03;;;;;;;21.27;8.93;;;21.20;99.90;;;;;;5063096;28;20285;-63
2021/07/15 12:16:31;;;;;;;13.57;8.13;;;21.30;99.90;;;;;;5058490;28;20045;-64
2021/07/15 12:19:03;;;;;;;13.57;7.80;;;21.30;99.90;;;;;;5063279;28;20037;-63
2021/07/15 12:21:32;;;;;;;15.07;8.27;;;21.30;99.90;;;;;;5058224;28;20076;-64
2021/07/15 12:24:15;;;;;;;18.33;9.50;;;21.20;99.90;;;;;;5063548;28;20041;-63
2021/07/15 12:26:42;;;;;;;20.33;8.95;;;21.20;99.90;;;;;;5039302;28;20060;-63
2021/07/15 12:29:13;;;;;;;16.50;8.18;;;21.20;99.90;;;;;;5060741;28;20090;-63
2021/07/15 12:31:39;;;;;;;14.90;8.65;;;21.20;99.90;;;;;;5047110;28;20049;-63
2021/07/15 12:34:07;;;;;;;15.63;8.35;;;21.10;99.90;;;;;;5054404;28;20041;-63
2021/07/15 12:36:36;;;;;;;17.80;8.43;;;21.10;99.90;;;;;;5054251;28;20044;-64
2021/07/15 12:39:11;;;;;;;17.45;9.07;;;21.10;99.90;;;;;;5061689;28;20048;-64
2021/07/15 12:41:39;;;;;;;16.58;9.10;;;21.10;99.90;;;;;;5046767;28;20049;-63
2021/07/15 12:44:12;;;;;;;18.38;8.93;;;21.10;99.90;;;;;;5054288;28;20048;-63
2021/07/15 12:46:43;;;;;;;15.75;8.48;;;21.00;99.90;;;;;;5047758;28;20075;-63
2021/07/15 12:49:35;;;;;;;15.60;8.85;;;21.10;99.90;;;;;;5053659;28;20045;-63
2021/07/15 12:52:03;;;;;;;16.55;8.68;;;21.20;99.90;;;;;;5046039;28;20432;-63
2021/07/15 12:54:33;;;;;;;14.40;8.27;;;21.30;99.90;;;;;;5059840;28;20055;-63
2021/07/15 12:57:01;;;;;;;18.95;8.75;;;21.20;99.90;;;;;;5046587;28;20045;-63
2021/07/15 12:59:28;;;;;;;14.48;8.77;;;21.20;99.90;;;;;;5057358;28;20200;-63
2021/07/15 13:01:54;;;;;;;14.48;8.38;;;21.10;99.90;;;;;;5047158;28;20053;-63
2021/07/15 13:04:24;;;;;;;16.85;8.30;;;21.10;99.90;;;;;;5040734;28;20045;-63
2021/07/15 13:06:52;;;;;;;17.17;8.25;;;21.10;99.90;;;;;;5051963;28;20125;-64
2021/07/15 13:09:25;;;;;;;15.23;8.40;;;21.00;99.90;;;;;;5049205;28;20049;-63
2021/07/15 13:14:43;;;;;;;14.38;8.18;;;21.10;99.90;;;;;;5058986;28;20045;-63
2021/07/15 13:17:09;;;;;;;17.42;8.38;;;21.20;99.90;;;;;;5061086;28;20059;-63
2021/07/15 13:19:37;;;;;;;20.52;8.88;;;21.20;99.90;;;;;;5057094;28;20045;-63
2021/07/15 13:22:17;;;;;;;16.23;8.23;;;21.20;99.90;;;;;;5058402;28;20134;-63
2021/07/15 13:24:58;;;;;;;14.93;7.90;;;21.10;99.90;;;;;;5058311;28;20041;-63
2021/07/15 13:27:24;;;;;;;18.65;8.68;;;21.00;99.90;;;;;;5058009;28;20055;-63
2021/07/15 13:29:50;;;;;;;15.15;8.48;;;20.90;99.90;;;;;;5057355;28;20449;-64
2021/07/15 13:32:21;;;;;;;19.08;8.55;;;20.90;99.90;;;;;;5046556;28;20059;-63
2021/07/15 13:34:52;;;;;;;13.32;8.07;;;20.90;99.90;;;;;;5037639;28;20049;-63
2021/07/15 13:37:33;;;;;;;19.15;8.23;;;20.90;99.90;;;;;;5049295;28;20056;-63
2021/07/15 13:40:02;;;;;;;13.48;7.85;;;20.90;99.90;;;;;;5056896;28;20088;-63
2021/07/15 13:42:38;;;;;;;17.80;8.02;;;20.80;99.90;;;;;;5062226;28;20053;-63
2021/07/15 13:45:10;;;;;;;13.45;7.60;;;20.70;99.90;;;;;;5056556;28;20041;-64
2021/07/15 13:47:46;;;;;;;14.68;8.35;;;20.70;99.90;;;;;;5063298;28;20049;-64
2021/07/15 13:50:35;;;;;;;17.80;8.82;;;20.60;99.90;;;;;;5057441;28;20057;-65
2021/07/15 13:53:01;;;;;;;20.23;9.05;;;20.60;99.90;;;;;;5045542;28;20049;-64
2021/07/15 13:55:28;;;;;;;16.10;8.75;;;20.50;99.90;;;;;;5055780;28;20071;-66
2021/07/15 13:57:56;;;;;;;14.20;8.32;;;20.40;99.90;;;;;;5072278;28;20048;-64
2021/07/15 14:00:31;;;;;;;18.38;8.40;;;20.30;99.90;;;;;;5051262;28;20041;-64
2021/07/15 14:03:03;;;;;;;15.63;8.77;;;20.30;99.90;;;;;;5031256;28;20045;-64
2021/07/15 14:05:32;;;;;;;14.00;8.20;;;20.30;99.90;;;;;;5042707;28;20100;-64
2021/07/15 14:07:59;;;;;;;17.15;8.10;;;20.30;99.90;;;;;;5026720;28;20509;-64
2021/07/15 14:10:27;;;;;;;14.23;8.00;;;20.30;99.90;;;;;;5024666;28;20088;-64
2021/07/15 14:12:53;;;;;;;14.70;8.75;;;20.30;99.90;;;;;;5041566;28;20598;-64
2021/07/15 14:15:42;;;;;;;16.05;8.10;;;20.30;99.90;;;;;;5038960;28;20042;-64
2021/07/15 14:18:12;;;;;;;19.20;9.20;;;20.20;99.90;;;;;;5028971;28;20049;-64
2021/07/15 14:20:43;;;;;;;20.48;9.38;;;20.20;99.90;;;;;;5040240;28;20422;-64
2021/07/15 14:23:10;;;;;;;14.45;8.25;;;20.20;99.90;;;;;;5058298;28;20052;-64
2021/07/15 14:25:38;;;;;;;15.50;9.10;;;20.30;99.90;;;;;;5029889;28;20057;-64
2021/07/15 14:28:05;;;;;;;15.13;9.10;;;20.30;99.90;;;;;;5064563;28;20049;-63
2021/07/15 14:30:33;;;;;;;21.13;8.95;;;20.20;99.90;;;;;;5059879;28;20045;-64
2021/07/15 14:33:00;;;;;;;16.75;8.68;;;20.20;99.90;;;;;;5045856;28;20053;-64
2021/07/15 14:35:28;;;;;;;23.20;9.27;;;20.30;99.90;;;;;;5038599;28;20076;-64
2021/07/15 14:37:54;;;;;;;16.05;8.82;;;20.30;99.90;;;;;;5044970;28;20059;-64
2021/07/15 14:40:20;;;;;;;13.88;8.25;;;20.40;99.90;;;;;;5040048;28;20615;-63
2021/07/15 14:42:47;;;;;;;18.95;9.98;;;20.50;99.90;;;;;;5045345;28;20068;-64
2021/07/15 14:45:15;;;;;;;17.33;8.90;;;20.60;99.90;;;;;;5055311;28;20047;-64
2021/07/15 14:47:42;;;;;;;18.13;8.50;;;20.70;99.90;;;;;;5064658;28;20052;-64
2021/07/15 14:50:10;;;;;;;19.75;8.73;;;20.80;99.90;;;;;;5059205;28;20069;-64
2021/07/15 14:52:36;;;;;;;17.60;8.13;;;20.90;99.90;;;;;;5064881;28;20082;-64
2021/07/15 14:55:04;;;;;;;18.80;8.80;;;21.10;99.90;;;;;;5057754;28;20044;-64
2021/07/15 14:57:31;;;;;;;12.65;6.05;;;21.30;99.90;;;;;;5064141;28;20120;-64